Time;durP1;ratioP1;P1;durP2;ratioP2;P2;SDS_P1;SDS_P2;PMS_P1;PMS_P2;Temp;Humidity;BMP_temperature;BMP_pressure;BME280_temperature;BME280_humidity;BME280_pressure;Samples;Min_cycle;Max_cycle;Signal;HPM_P1;HPM_P2
2021/08/18 00:00:45;;;;;;;11.63;5.20;;;14.00;99.90;;;;;;6079564;23;20053;-95
2021/08/18 00:03:12;;;;;;;7.00;4.55;;;14.10;99.90;;;;;;6102946;23;20478;-95
2021/08/18 00:05:39;;;;;;;14.13;5.55;;;14.10;99.90;;;;;;6103164;23;20018;-95
2021/08/18 00:08:10;;;;;;;12.35;6.00;;;14.10;99.90;;;;;;6128058;23;20698;-96
2021/08/18 00:10:38;;;;;;;12.82;5.97;;;14.10;99.90;;;;;;6126344;23;20018;-95
2021/08/18 00:13:09;;;;;;;12.05;5.75;;;14.20;99.90;;;;;;6127428;23;20143;-95
2021/08/18 00:15:35;;;;;;;11.15;5.85;;;14.20;99.90;;;;;;6103274;23;20022;-95
2021/08/18 00:18:01;;;;;;;17.20;6.45;;;14.20;99.90;;;;;;6127907;23;20014;-95
2021/08/18 00:20:31;;;;;;;7.63;4.03;;;14.20;99.90;;;;;;6106120;23;20068;-95
2021/08/18 00:22:57;;;;;;;9.23;4.50;;;14.30;99.90;;;;;;6126695;23;20036;-95
2021/08/18 00:25:25;;;;;;;11.05;5.43;;;14.30;99.90;;;;;;6102410;23;20463;-96
2021/08/18 00:27:57;;;;;;;8.10;4.50;;;14.30;99.90;;;;;;6079846;23;20018;-96
2021/08/18 00:30:23;;;;;;;10.40;4.80;;;14.30;99.90;;;;;;6130447;23;20049;-96
2021/08/18 00:32:50;;;;;;;8.27;4.47;;;14.30;99.90;;;;;;6055644;23;20021;-95
2021/08/18 00:35:16;;;;;;;8.93;4.90;;;14.30;99.90;;;;;;6079310;23;20042;-96
2021/08/18 00:37:41;;;;;;;9.55;5.70;;;14.30;99.90;;;;;;6103341;23;20343;-95
2021/08/18 00:40:09;;;;;;;11.13;5.40;;;14.30;99.90;;;;;;6103088;23;20541;-96
2021/08/18 00:42:36;;;;;;;9.27;5.85;;;14.40;99.90;;;;;;6054471;23;20403;-95
2021/08/18 00:45:02;;;;;;;11.93;5.15;;;14.30;99.90;;;;;;6126987;23;20029;-96
2021/08/18 00:47:28;;;;;;;12.23;5.68;;;14.40;99.90;;;;;;6103193;23;20021;-95
2021/08/18 00:49:54;;;;;;;10.02;4.88;;;14.40;99.90;;;;;;6105003;23;20490;-95
2021/08/18 00:52:20;;;;;;;11.57;5.22;;;14.40;99.90;;;;;;6056260;23;20022;-95
2021/08/18 00:54:47;;;;;;;10.38;5.35;;;14.40;99.90;;;;;;6056293;23;20045;-95
2021/08/18 00:57:13;;;;;;;10.80;5.13;;;14.40;99.90;;;;;;6081301;23;20022;-94
2021/08/18 00:59:39;;;;;;;10.90;5.22;;;14.40;99.90;;;;;;6056736;23;20077;-95
2021/08/18 01:02:05;;;;;;;8.80;5.15;;;14.40;99.90;;;;;;6129852;23;20022;-95
2021/08/18 01:04:31;;;;;;;8.93;5.57;;;14.40;99.90;;;;;;6054665;23;20014;-95
2021/08/18 01:06:57;;;;;;;8.52;4.72;;;14.40;99.90;;;;;;6079617;23;20018;-95
2021/08/18 01:09:24;;;;;;;9.75;5.53;;;14.40;99.90;;;;;;6079733;23;20016;-95
2021/08/18 01:11:51;;;;;;;9.75;5.45;;;14.40;99.90;;;;;;6056328;23;20025;-95
2021/08/18 01:14:18;;;;;;;10.23;5.85;;;14.40;99.90;;;;;;6079794;23;20045;-96
2021/08/18 01:16:47;;;;;;;12.38;5.40;;;14.40;99.90;;;;;;6104219;23;20112;-95
2021/08/18 01:19:16;;;;;;;12.32;6.25;;;14.40;99.90;;;;;;6104383;23;20017;-96
2021/08/18 01:21:42;;;;;;;8.60;5.15;;;14.40;99.90;;;;;;6103037;23;20022;-95
2021/08/18 01:24:10;;;;;;;8.32;5.18;;;14.40;99.90;;;;;;6103649;23;20111;-96
2021/08/18 01:26:39;;;;;;;;;;;14.30;99.90;;;;;;6106983;23;20022;-96
2021/08/18 01:29:05;;;;;;;8.55;4.95;;;14.30;99.90;;;;;;6109175;23;19925;-96
2021/08/18 01:31:32;;;;;;;8.98;4.80;;;14.30;99.90;;;;;;6083966;23;20028;-96
2021/08/18 01:34:01;;;;;;;9.25;5.18;;;14.30;99.90;;;;;;6059159;23;20018;-96
2021/08/18 01:36:31;;;;;;;8.27;5.13;;;14.20;99.90;;;;;;6130321;23;20529;-96
2021/08/18 01:39:06;;;;;;;9.48;4.95;;;14.20;99.90;;;;;;6106548;23;20032;-96
2021/08/18 01:41:33;;;;;;;9.07;4.60;;;14.20;99.90;;;;;;6082417;23;20024;-96
2021/08/18 01:43:59;;;;;;;9.65;5.07;;;14.10;99.90;;;;;;6081247;23;20006;-96
2021/08/18 01:46:25;;;;;;;6.82;4.07;;;14.10;99.90;;;;;;6082696;23;20022;-96
2021/08/18 01:48:56;;;;;;;9.43;5.00;;;14.00;99.90;;;;;;6082237;23;20014;-96
2021/08/18 01:51:23;;;;;;;8.25;5.07;;;14.00;99.90;;;;;;6129655;23;20045;-96
2021/08/18 01:53:49;;;;;;;9.23;5.13;;;14.00;99.90;;;;;;6106125;23;20346;-96
2021/08/18 01:56:19;;;;;;;10.13;5.47;;;14.00;99.90;;;;;;6105681;23;20022;-96
2021/08/18 01:58:49;;;;;;;10.60;4.80;;;14.00;99.90;;;;;;6106898;23;20041;-95
2021/08/18 02:01:16;;;;;;;10.38;5.60;;;14.00;99.90;;;;;;6083162;23;20040;-95
2021/08/18 02:03:43;;;;;;;7.57;4.82;;;14.00;99.90;;;;;;6104991;23;20388;-96
2021/08/18 02:06:11;;;;;;;8.52;5.00;;;14.00;99.90;;;;;;6082445;23;20033;-96
2021/08/18 02:08:38;;;;;;;10.45;6.18;;;14.00;99.90;;;;;;6108343;23;20021;-96
2021/08/18 02:11:04;;;;;;;11.10;5.70;;;14.10;99.90;;;;;;6128658;23;20220;-96
2021/08/18 02:13:31;;;;;;;9.55;5.18;;;14.10;99.90;;;;;;6103811;23;20042;-90
2021/08/18 02:15:57;;;;;;;8.93;5.28;;;14.10;99.90;;;;;;6101854;23;20061;-90
2021/08/18 02:18:25;;;;;;;8.75;4.65;;;14.10;99.90;;;;;;6079672;23;20013;-90
2021/08/18 02:20:52;;;;;;;10.73;5.15;;;14.20;99.90;;;;;;6108426;23;20033;-90
2021/08/18 02:23:18;;;;;;;10.65;5.90;;;14.20;99.90;;;;;;6103151;23;20412;-90
2021/08/18 02:25:44;;;;;;;10.25;5.30;;;14.20;99.90;;;;;;6127974;23;20018;-90
2021/08/18 02:28:10;;;;;;;13.70;5.47;;;14.30;99.90;;;;;;6128314;23;20021;-89
2021/08/18 02:30:36;;;;;;;9.98;5.57;;;14.30;99.90;;;;;;6054095;23;20108;-89
2021/08/18 02:33:03;;;;;;;9.10;5.00;;;14.30;99.90;;;;;;6126735;23;20104;-90
2021/08/18 02:35:30;;;;;;;9.77;5.47;;;14.30;99.90;;;;;;6126274;23;20327;-90
2021/08/18 02:37:58;;;;;;;13.00;4.93;;;14.30;99.90;;;;;;6102113;23;20018;-90
2021/08/18 02:40:25;;;;;;;10.43;4.93;;;14.30;99.90;;;;;;6101933;23;20081;-90
2021/08/18 02:42:54;;;;;;;10.88;5.53;;;14.30;99.90;;;;;;6125677;23;20029;-89
2021/08/18 02:45:22;;;;;;;8.98;4.97;;;14.30;99.90;;;;;;6101382;23;20533;-90
2021/08/18 02:47:49;;;;;;;9.25;4.80;;;14.30;99.90;;;;;;6079094;23;20022;-91
2021/08/18 02:50:17;;;;;;;8.75;5.45;;;14.30;99.90;;;;;;6101837;23;20018;-90
2021/08/18 02:52:43;;;;;;;12.35;5.55;;;14.30;99.90;;;;;;6124458;23;20041;-90
2021/08/18 02:55:11;;;;;;;10.95;6.05;;;14.40;99.90;;;;;;6077985;23;20021;-88
2021/08/18 02:57:37;;;;;;;10.13;6.13;;;14.40;99.90;;;;;;6102890;23;20037;-90
2021/08/18 03:00:04;;;;;;;10.80;5.80;;;14.40;99.90;;;;;;6079381;23;20469;-90
2021/08/18 03:02:30;;;;;;;9.57;5.05;;;14.40;99.90;;;;;;6054816;23;20025;-90
2021/08/18 03:04:56;;;;;;;9.60;5.47;;;14.40;99.90;;;;;;6103702;23;20029;-90
2021/08/18 03:07:22;;;;;;;11.70;5.75;;;14.40;99.90;;;;;;6078688;23;20350;-90
2021/08/18 03:09:48;;;;;;;13.38;5.57;;;14.40;99.90;;;;;;6103835;23;20029;-89
2021/08/18 03:12:14;;;;;;;10.40;5.47;;;14.40;99.90;;;;;;6104443;23;20018;-90
2021/08/18 03:14:41;;;;;;;10.82;5.63;;;14.40;99.90;;;;;;6078544;23;20021;-90
2021/08/18 03:17:07;;;;;;;9.90;6.03;;;14.50;99.90;;;;;;6103909;23;20026;-90
2021/08/18 03:19:33;;;;;;;9.48;4.95;;;14.40;99.90;;;;;;6126788;23;20093;-90
2021/08/18 03:21:59;;;;;;;12.40;5.65;;;14.50;99.90;;;;;;6126537;23;20025;-90
2021/08/18 03:24:25;;;;;;;10.32;6.22;;;14.50;99.90;;;;;;6078660;23;20371;-90
2021/08/18 03:26:51;;;;;;;11.63;5.80;;;14.50;99.90;;;;;;6053599;23;20018;-90
2021/08/18 03:29:17;;;;;;;11.73;5.40;;;14.50;99.90;;;;;;6102052;23;20081;-90
2021/08/18 03:31:43;;;;;;;10.60;5.32;;;14.50;99.90;;;;;;6078361;23;20014;-90
2021/08/18 03:34:09;;;;;;;11.82;6.65;;;14.50;99.90;;;;;;6101444;23;20022;-90
2021/08/18 03:36:35;;;;;;;9.93;5.30;;;14.60;99.90;;;;;;6128855;23;20334;-90
2021/08/18 03:39:01;;;;;;;10.32;5.50;;;14.60;99.90;;;;;;6079416;23;20022;-90
2021/08/18 03:41:27;;;;;;;10.70;5.93;;;14.60;99.90;;;;;;6080574;23;20049;-90
2021/08/18 03:43:53;;;;;;;13.25;5.90;;;14.60;99.90;;;;;;6079741;23;20018;-90
2021/08/18 03:46:22;;;;;;;11.50;5.70;;;14.60;99.90;;;;;;6103160;23;20104;-90
2021/08/18 03:48:48;;;;;;;12.38;6.45;;;14.60;99.90;;;;;;6078748;23;20022;-90
2021/08/18 03:51:33;;;;;;;13.38;6.35;;;14.60;99.90;;;;;;6077414;23;20033;-89
2021/08/18 03:53:58;;;;;;;11.98;6.30;;;14.60;99.90;;;;;;6100667;23;20018;-90
2021/08/18 03:56:24;;;;;;;11.48;6.60;;;14.60;99.90;;;;;;6076756;23;20448;-90
2021/08/18 03:58:50;;;;;;;10.88;5.43;;;14.70;99.90;;;;;;6101332;23;20451;-90
2021/08/18 04:01:16;;;;;;;8.55;5.88;;;14.70;99.90;;;;;;6101384;23;20032;-89
2021/08/18 04:04:01;;;;;;;11.38;5.60;;;14.60;99.90;;;;;;6078127;23;20018;-90
2021/08/18 04:06:27;;;;;;;10.55;5.55;;;14.70;99.90;;;;;;6109032;23;20054;-89
2021/08/18 04:08:56;;;;;;;10.95;5.80;;;14.70;99.90;;;;;;6079851;23;20461;-89
2021/08/18 04:11:22;;;;;;;10.77;6.22;;;14.70;99.90;;;;;;6103823;23;20014;-89
2021/08/18 04:13:48;;;;;;;14.65;6.47;;;14.70;99.90;;;;;;6102621;23;20029;-89
2021/08/18 04:16:15;;;;;;;9.95;5.68;;;14.70;99.90;;;;;;6055279;23;20018;-90
2021/08/18 04:18:41;;;;;;;9.10;4.88;;;14.70;99.90;;;;;;6080346;23;20029;-90
2021/08/18 04:21:07;;;;;;;11.60;5.68;;;14.80;99.90;;;;;;6079544;23;20073;-90
2021/08/18 04:23:33;;;;;;;11.80;6.00;;;14.70;99.90;;;;;;6077566;23;20022;-89
2021/08/18 04:25:59;;;;;;;9.60;5.70;;;14.70;99.90;;;;;;6077222;23;20014;-89
2021/08/18 04:28:25;;;;;;;9.30;5.47;;;14.70;99.90;;;;;;6081071;23;20025;-90
2021/08/18 04:30:52;;;;;;;11.82;5.68;;;14.70;99.90;;;;;;6077314;23;20050;-89
2021/08/18 04:33:18;;;;;;;10.77;6.10;;;14.70;99.90;;;;;;6102277;23;20017;-89
2021/08/18 04:35:44;;;;;;;11.15;5.90;;;14.70;99.90;;;;;;6078589;23;20014;-89
2021/08/18 04:38:10;;;;;;;11.25;5.55;;;14.70;99.90;;;;;;6101747;23;20137;-90
2021/08/18 04:40:36;;;;;;;10.23;5.55;;;14.70;99.90;;;;;;6127855;23;20025;-90
2021/08/18 04:43:03;;;;;;;10.65;5.82;;;14.70;99.90;;;;;;6078645;23;20042;-89
2021/08/18 04:45:30;;;;;;;12.65;5.28;;;14.70;99.90;;;;;;6078640;23;20025;-89
2021/08/18 04:47:56;;;;;;;10.07;5.57;;;14.70;99.90;;;;;;6103342;23;20025;-89
2021/08/18 04:50:22;;;;;;;8.43;5.60;;;14.70;99.90;;;;;;6078380;23;20018;-89
2021/08/18 04:52:48;;;;;;;9.27;5.07;;;14.70;99.90;;;;;;6127219;23;20024;-89
2021/08/18 04:55:15;;;;;;;9.80;5.18;;;14.70;99.90;;;;;;6078253;23;20368;-90
2021/08/18 04:57:41;;;;;;;10.02;5.00;;;14.70;99.90;;;;;;6103391;23;20014;-89
2021/08/18 05:00:08;;;;;;;11.23;5.10;;;14.70;99.90;;;;;;6078819;23;20078;-89
2021/08/18 05:02:35;;;;;;;8.80;4.82;;;14.70;99.90;;;;;;6054932;23;20033;-89
2021/08/18 05:05:03;;;;;;;10.60;5.22;;;14.70;99.90;;;;;;6102828;23;20017;-88
2021/08/18 05:07:29;;;;;;;10.45;6.05;;;14.80;99.90;;;;;;6102628;23;20014;-90
2021/08/18 05:09:56;;;;;;;8.32;4.93;;;14.80;99.90;;;;;;6126227;23;20022;-89
2021/08/18 05:12:22;;;;;;;9.45;5.70;;;14.80;99.90;;;;;;6078618;23;20025;-90
2021/08/18 05:14:48;;;;;;;10.60;5.75;;;14.80;99.90;;;;;;6104664;23;20084;-90
2021/08/18 05:17:14;;;;;;;9.82;5.90;;;14.80;99.90;;;;;;6127789;23;20324;-90
2021/08/18 05:19:41;;;;;;;9.98;5.57;;;14.90;99.90;;;;;;6104183;23;20069;-89
2021/08/18 05:22:08;;;;;;;10.27;5.28;;;14.90;99.90;;;;;;6081129;23;20017;-89
2021/08/18 05:24:46;;;;;;;9.68;5.60;;;14.90;99.90;;;;;;6105235;23;20096;-89
2021/08/18 05:27:13;;;;;;;12.93;5.95;;;14.90;99.90;;;;;;6127150;23;20462;-90
2021/08/18 05:29:41;;;;;;;12.00;5.72;;;14.90;99.90;;;;;;6103682;23;20254;-89
2021/08/18 05:32:07;;;;;;;14.82;5.95;;;14.90;99.90;;;;;;6126784;23;20018;-89
2021/08/18 05:34:33;;;;;;;11.52;5.78;;;15.00;99.90;;;;;;6128183;23;20077;-89
2021/08/18 05:37:05;;;;;;;10.10;5.55;;;15.00;99.90;;;;;;6057207;23;20014;-89
2021/08/18 05:39:34;;;;;;;9.48;6.65;;;15.00;99.90;;;;;;6107944;23;20018;-88
2021/08/18 05:42:01;;;;;;;13.30;5.45;;;15.00;99.90;;;;;;6051412;23;20018;-89
2021/08/18 05:44:30;;;;;;;12.82;7.03;;;15.00;99.90;;;;;;6106286;23;20018;-89
2021/08/18 05:46:57;;;;;;;10.50;5.50;;;15.00;99.90;;;;;;6054957;23;20022;-88
2021/08/18 05:49:23;;;;;;;10.43;5.43;;;15.10;99.90;;;;;;6101942;23;20541;-88
2021/08/18 05:51:50;;;;;;;11.20;5.25;;;15.00;99.90;;;;;;6125286;23;20567;-89
2021/08/18 05:54:18;;;;;;;10.10;5.32;;;15.10;99.90;;;;;;6053921;23;20418;-90
2021/08/18 05:56:44;;;;;;;9.40;4.47;;;15.10;99.90;;;;;;6100391;23;20351;-89
2021/08/18 05:59:10;;;;;;;8.55;4.57;;;15.10;99.90;;;;;;6108765;23;20325;-89
2021/08/18 06:01:36;;;;;;;8.15;4.25;;;15.10;99.90;;;;;;6102140;23;20020;-90
2021/08/18 06:04:02;;;;;;;7.00;3.72;;;15.10;99.90;;;;;;6100829;23;20038;-89
2021/08/18 06:06:28;;;;;;;6.15;3.97;;;15.10;99.90;;;;;;6127343;23;20068;-89
2021/08/18 06:08:55;;;;;;;5.68;3.80;;;15.10;99.90;;;;;;6077963;23;20018;-90
2021/08/18 06:11:21;;;;;;;6.22;3.35;;;15.20;99.90;;;;;;6101603;23;20021;-89
2021/08/18 06:13:47;;;;;;;4.32;2.78;;;15.20;99.90;;;;;;6077314;23;20097;-88
2021/08/18 06:16:13;;;;;;;5.13;3.05;;;15.20;99.90;;;;;;6053091;23;20025;-88
2021/08/18 06:18:39;;;;;;;5.07;2.78;;;15.20;99.90;;;;;;6077589;23;20018;-88
2021/08/18 06:21:05;;;;;;;5.07;2.60;;;15.20;99.90;;;;;;6076832;23;20455;-88
2021/08/18 06:23:32;;;;;;;5.15;2.58;;;15.10;99.90;;;;;;6076464;23;20018;-88
2021/08/18 06:25:59;;;;;;;5.20;2.90;;;15.20;99.90;;;;;;6101951;23;20029;-89
2021/08/18 06:28:25;;;;;;;4.28;2.80;;;15.20;99.90;;;;;;6125266;23;20102;-89
2021/08/18 06:30:53;;;;;;;6.68;3.03;;;15.20;99.90;;;;;;6052744;23;20022;-88
2021/08/18 06:33:20;;;;;;;4.63;3.25;;;15.20;99.90;;;;;;6101446;23;20021;-89
2021/08/18 06:35:46;;;;;;;4.90;3.13;;;15.20;99.90;;;;;;6123026;23;20021;-87
2021/08/18 06:38:12;;;;;;;7.63;4.07;;;15.20;99.90;;;;;;6076657;23;20096;-89
2021/08/18 06:40:38;;;;;;;6.10;3.90;;;15.20;99.90;;;;;;6127769;23;20018;-90
2021/08/18 06:43:05;;;;;;;5.95;4.15;;;15.20;99.90;;;;;;6076516;23;20021;-89
2021/08/18 06:45:31;;;;;;;6.55;3.70;;;15.20;99.90;;;;;;6051091;23;20128;-88
2021/08/18 06:47:57;;;;;;;5.78;3.67;;;15.30;99.90;;;;;;6052410;23;20022;-88
2021/08/18 06:50:24;;;;;;;7.78;4.30;;;15.30;99.90;;;;;;6100714;23;20077;-88
2021/08/18 06:52:50;;;;;;;7.47;4.43;;;15.40;99.90;;;;;;6099807;23;20044;-88
2021/08/18 06:55:16;;;;;;;7.35;4.03;;;15.50;99.90;;;;;;6076058;23;20841;-88
2021/08/18 06:57:46;;;;;;;7.63;4.90;;;15.50;99.90;;;;;;6076013;23;20018;-88
2021/08/18 07:00:13;;;;;;;8.00;4.22;;;15.60;99.90;;;;;;6100042;23;20092;-88
2021/08/18 07:02:49;;;;;;;8.45;4.70;;;15.60;99.90;;;;;;6076285;23;20028;-89
2021/08/18 07:05:16;;;;;;;8.57;4.88;;;15.70;99.90;;;;;;6135478;23;20018;-89
2021/08/18 07:07:43;;;;;;;8.50;4.90;;;15.70;99.90;;;;;;6053580;23;20017;-89
2021/08/18 07:10:10;;;;;;;8.63;5.28;;;15.80;99.90;;;;;;6053469;23;20458;-89
2021/08/18 07:12:37;;;;;;;10.35;4.82;;;15.90;99.90;;;;;;6123662;23;20042;-89
2021/08/18 07:15:06;;;;;;;10.70;4.25;;;16.00;99.90;;;;;;6101348;23;20398;-89
2021/08/18 07:17:33;;;;;;;8.93;5.00;;;16.00;99.90;;;;;;6076231;23;20105;-89
2021/08/18 07:19:59;;;;;;;8.52;5.15;;;16.10;99.90;;;;;;6123490;23;20324;-91
2021/08/18 07:22:25;;;;;;;8.20;4.78;;;16.20;99.90;;;;;;6075837;23;20014;-89
2021/08/18 07:24:51;;;;;;;9.15;5.07;;;16.20;99.90;;;;;;6052807;23;20320;-88
2021/08/18 07:27:19;;;;;;;7.82;4.40;;;16.20;99.90;;;;;;6100239;23;20029;-89
2021/08/18 07:29:46;;;;;;;8.70;4.68;;;16.30;99.90;;;;;;6123774;23;20022;-88
2021/08/18 07:32:15;;;;;;;8.90;4.82;;;16.30;99.90;;;;;;6108437;23;20022;-88
2021/08/18 07:34:41;;;;;;;7.68;4.60;;;16.40;99.90;;;;;;6077452;23;20092;-89
2021/08/18 07:37:10;;;;;;;9.32;5.10;;;16.40;99.90;;;;;;6076836;23;20485;-88
2021/08/18 07:39:36;;;;;;;13.80;5.50;;;16.50;99.90;;;;;;6075293;23;20022;-88
2021/08/18 07:42:02;;;;;;;9.30;4.47;;;16.50;99.90;;;;;;6075407;23;20517;-88
2021/08/18 07:44:28;;;;;;;8.63;4.50;;;16.50;99.90;;;;;;6076370;23;20025;-88
2021/08/18 07:46:54;;;;;;;7.68;4.53;;;16.60;99.90;;;;;;6077130;23;20022;-89
2021/08/18 07:49:21;;;;;;;9.95;5.10;;;16.60;99.90;;;;;;6077583;23;20014;-91
2021/08/18 07:51:47;;;;;;;8.30;4.72;;;16.70;99.90;;;;;;6124409;23;20028;-88
2021/08/18 07:54:13;;;;;;;6.78;4.90;;;16.70;99.90;;;;;;6125386;23;20010;-88
2021/08/18 07:56:39;;;;;;;8.48;5.22;;;16.80;99.90;;;;;;6077151;23;20022;-88
2021/08/18 07:59:05;;;;;;;9.55;5.13;;;16.80;99.90;;;;;;6076689;23;20022;-89
2021/08/18 08:01:31;;;;;;;10.10;5.68;;;16.90;99.90;;;;;;6077321;23;20014;-88
2021/08/18 08:03:57;;;;;;;9.88;6.25;;;16.90;99.90;;;;;;6124861;23;20069;-88
2021/08/18 08:06:23;;;;;;;11.13;6.65;;;16.90;99.90;;;;;;6076163;23;20014;-89
2021/08/18 08:08:49;;;;;;;12.82;6.82;;;16.90;99.90;;;;;;6077040;23;20467;-88
2021/08/18 08:11:17;;;;;;;12.90;7.47;;;16.90;99.90;;;;;;6126236;23;20026;-89
2021/08/18 08:13:55;;;;;;;11.38;6.63;;;16.90;99.90;;;;;;6127698;23;20041;-89
2021/08/18 08:16:21;;;;;;;9.80;5.90;;;16.90;99.90;;;;;;6074620;23;20022;-88
2021/08/18 08:18:47;;;;;;;12.02;5.65;;;17.00;99.90;;;;;;6100176;23;20105;-89
2021/08/18 08:21:14;;;;;;;10.18;5.30;;;17.00;99.90;;;;;;6102071;23;20447;-89
2021/08/18 08:23:41;;;;;;;9.30;5.32;;;17.00;99.90;;;;;;6126060;23;20026;-90
2021/08/18 08:26:08;;;;;;;7.95;5.95;;;17.00;99.90;;;;;;6127308;23;20029;-89
2021/08/18 08:28:33;;;;;;;8.02;5.20;;;17.10;99.90;;;;;;6125150;23;20110;-90
2021/08/18 08:31:00;;;;;;;7.97;4.80;;;17.10;99.90;;;;;;6101325;23;20018;-89
2021/08/18 08:33:26;;;;;;;8.93;5.57;;;17.20;99.90;;;;;;6076050;23;20341;-90
2021/08/18 08:35:53;;;;;;;7.45;5.15;;;17.30;99.90;;;;;;6077148;23;20025;-89
2021/08/18 08:38:20;;;;;;;8.32;4.93;;;17.40;99.90;;;;;;6077779;23;20077;-89
2021/08/18 08:40:46;;;;;;;6.60;4.15;;;17.40;99.90;;;;;;6082539;23;20088;-89
2021/08/18 08:43:13;;;;;;;9.95;4.82;;;17.50;99.90;;;;;;6101314;23;20024;-90
2021/08/18 08:45:42;;;;;;;6.80;4.30;;;17.50;99.90;;;;;;6100298;23;20022;-89
2021/08/18 08:48:09;;;;;;;9.07;4.55;;;17.60;99.90;;;;;;6094689;23;20068;-89
2021/08/18 08:50:37;;;;;;;6.60;3.47;;;17.70;99.90;;;;;;6101320;23;20092;-90
2021/08/18 08:53:03;;;;;;;8.30;4.70;;;17.80;99.90;;;;;;6101602;23;20492;-89
2021/08/18 08:55:30;;;;;;;7.53;3.97;;;17.80;99.90;;;;;;6054301;23;20458;-90
2021/08/18 08:57:57;;;;;;;7.38;4.15;;;17.90;99.90;;;;;;6102117;23;20101;-89
2021/08/18 09:00:24;;;;;;;8.45;4.20;;;18.00;99.90;;;;;;6077585;23;20026;-89
2021/08/18 09:03:15;;;;;;;7.18;3.28;;;18.00;99.90;;;;;;6125913;23;20022;-89
2021/08/18 09:05:41;;;;;;;7.25;4.28;;;18.00;99.90;;;;;;6098617;23;20029;-90
2021/08/18 09:08:16;;;;;;;6.53;3.78;;;18.00;99.90;;;;;;6100465;23;20021;-89
2021/08/18 09:11:08;;;;;;;6.75;3.85;;;18.00;99.90;;;;;;6127998;23;20351;-88
2021/08/18 09:13:44;;;;;;;7.65;3.88;;;18.00;99.90;;;;;;6130362;23;20021;-90
2021/08/18 09:16:11;;;;;;;8.52;4.15;;;18.00;99.90;;;;;;6125372;23;20028;-90
2021/08/18 09:18:38;;;;;;;7.40;4.18;;;18.10;99.90;;;;;;6102441;23;20026;-90
2021/08/18 09:21:36;;;;;;;6.60;3.65;;;18.00;99.90;;;;;;6103102;23;20101;-90
2021/08/18 09:24:11;;;;;;;6.60;4.43;;;18.00;99.90;;;;;;6128390;23;20510;-96
2021/08/18 09:26:39;;;;;;;6.28;4.10;;;18.00;99.90;;;;;;6106267;23;20022;-96
2021/08/18 09:29:24;;;;;;;5.45;3.85;;;18.10;99.90;;;;;;6106882;23;20022;-95
2021/08/18 09:31:57;;;;;;;6.28;3.60;;;18.00;99.90;;;;;;6106521;23;20022;-96
2021/08/18 09:34:24;;;;;;;7.25;3.97;;;18.10;99.90;;;;;;6084329;23;20029;-96
2021/08/18 09:37:09;;;;;;;8.15;4.10;;;18.10;99.90;;;;;;6084518;23;20025;-96
2021/08/18 09:39:36;;;;;;;7.75;4.30;;;18.20;99.90;;;;;;6110971;23;20037;-96
2021/08/18 09:42:02;;;;;;;6.30;4.00;;;18.20;99.90;;;;;;6085297;23;20033;-96
2021/08/18 09:44:34;;;;;;;8.82;4.25;;;18.30;99.90;;;;;;6108198;23;20045;-95
2021/08/18 09:47:05;;;;;;;6.00;3.80;;;18.20;99.90;;;;;;6106512;23;20347;-96
2021/08/18 09:49:33;;;;;;;6.07;3.70;;;18.20;99.90;;;;;;6106038;23;20022;-96
2021/08/18 09:52:00;;;;;;;7.38;4.05;;;18.20;99.90;;;;;;6106728;23;20025;-96
2021/08/18 09:54:36;;;;;;;6.80;4.00;;;18.20;99.90;;;;;;6133595;23;20018;-96
2021/08/18 09:57:07;;;;;;;6.30;4.05;;;18.30;99.90;;;;;;6130938;23;20022;-96
2021/08/18 09:59:36;;;;;;;;;;;18.30;99.90;;;;;;6107214;23;20081;-96
2021/08/18 10:02:04;;;;;;;7.23;4.30;;;18.40;99.90;;;;;;6105568;23;19988;-96
2021/08/18 10:04:31;;;;;;;8.68;4.38;;;18.40;99.90;;;;;;6110274;23;20017;-96
2021/08/18 10:07:18;;;;;;;5.13;3.83;;;18.50;99.90;;;;;;6110490;23;20128;-95
2021/08/18 10:09:45;;;;;;;7.28;4.88;;;18.50;99.90;;;;;;6109142;23;20442;-96
2021/08/18 10:12:14;;;;;;;6.72;4.60;;;18.40;99.90;;;;;;6111026;23;20024;-96
2021/08/18 10:14:40;;;;;;;9.90;4.72;;;18.50;99.90;;;;;;6111972;23;20020;-96
2021/08/18 10:17:08;;;;;;;6.00;4.90;;;18.50;99.90;;;;;;6134343;23;20100;-96
2021/08/18 10:19:35;;;;;;;6.05;4.32;;;18.50;99.90;;;;;;6106650;23;20096;-96
2021/08/18 10:22:39;;;;;;;6.45;4.45;;;18.50;99.90;;;;;;6082250;23;20018;-96
2021/08/18 10:25:37;;;;;;;6.30;4.43;;;18.60;99.90;;;;;;6132190;23;20022;-96
2021/08/18 10:28:12;;;;;;;6.80;4.18;;;18.70;99.90;;;;;;6107467;23;20017;-94
2021/08/18 10:30:52;;;;;;;7.35;4.55;;;18.70;99.90;;;;;;6106885;23;20044;-94
2021/08/18 10:33:38;;;;;;;;;;;18.70;99.90;;;;;;6131419;23;20021;-95
2021/08/18 10:36:04;;;;;;;12.63;5.40;;;18.70;99.90;;;;;;6104578;23;19991;-95
2021/08/18 10:38:34;;;;;;;9.10;4.53;;;18.80;99.90;;;;;;6105995;23;20049;-96
2021/08/18 10:41:01;;;;;;;5.82;4.15;;;18.80;99.90;;;;;;6106302;23;20052;-95
2021/08/18 10:44:07;;;;;;;9.77;5.15;;;18.90;99.90;;;;;;6106141;23;20021;-96
2021/08/18 10:47:19;;;;;;;5.75;4.82;;;18.90;99.90;;;;;;6129286;23;20045;-95
2021/08/18 10:50:30;;;;;;;8.68;4.50;;;19.00;99.90;;;;;;6073541;23;20017;-93
2021/08/18 10:52:58;;;;;;;5.90;4.18;;;19.20;99.90;;;;;;6106044;23;20040;-95
2021/08/18 10:55:25;;;;;;;6.18;4.20;;;19.40;99.90;;;;;;6059234;23;20032;-95
2021/08/18 10:57:53;;;;;;;6.18;4.07;;;19.40;99.90;;;;;;6107695;23;20018;-96
2021/08/18 11:00:31;;;;;;;7.00;3.75;;;19.50;99.90;;;;;;6084678;23;20017;-96
2021/08/18 11:03:06;;;;;;;5.45;3.60;;;19.60;99.90;;;;;;6131884;23;20023;-96
2021/08/18 11:05:43;;;;;;;7.63;3.40;;;19.80;99.90;;;;;;6109575;23;20078;-96
2021/08/18 11:08:17;;;;;;;4.25;3.13;;;19.90;99.10;;;;;;6107697;23;20018;-96
2021/08/18 11:10:43;;;;;;;6.32;3.15;;;20.00;97.60;;;;;;6132279;23;20018;-95
2021/08/18 11:13:14;;;;;;;5.15;3.15;;;20.00;97.10;;;;;;6106506;23;20109;-96
2021/08/18 11:15:43;;;;;;;3.92;3.10;;;20.00;97.40;;;;;;6085673;23;20024;-96
2021/08/18 11:18:10;;;;;;;6.10;3.10;;;20.00;97.10;;;;;;6131639;23;20025;-96
2021/08/18 11:20:37;;;;;;;6.63;3.20;;;20.10;97.30;;;;;;6106730;23;20014;-96
2021/08/18 11:23:11;;;;;;;5.03;2.80;;;20.10;97.60;;;;;;6132222;23;20026;-96
2021/08/18 11:25:45;;;;;;;6.80;3.38;;;20.20;97.90;;;;;;6108519;23;20029;-95
2021/08/18 11:28:22;;;;;;;4.30;2.80;;;20.30;97.80;;;;;;6107792;23;20455;-96
2021/08/18 11:31:04;;;;;;;7.00;3.50;;;20.40;97.10;;;;;;6084990;23;20026;-96
2021/08/18 11:33:33;;;;;;;6.07;3.85;;;20.40;97.40;;;;;;6107109;23;20025;-95
2021/08/18 11:36:01;;;;;;;5.30;3.72;;;20.50;96.80;;;;;;6082467;23;20029;-96
2021/08/18 11:38:28;;;;;;;4.85;3.47;;;20.50;96.30;;;;;;6131773;23;20021;-96
2021/08/18 11:40:55;;;;;;;4.88;3.20;;;20.50;95.80;;;;;;6132608;23;20010;-96
2021/08/18 11:43:42;;;;;;;6.53;3.53;;;20.40;95.60;;;;;;6108850;23;20451;-96
2021/08/18 11:46:15;;;;;;;5.43;3.53;;;20.40;96.70;;;;;;6109539;23;20521;-96
2021/08/18 11:49:08;;;;;;;6.50;3.25;;;20.50;97.00;;;;;;6085727;23;20041;-96
2021/08/18 11:51:35;;;;;;;5.90;3.25;;;20.60;97.00;;;;;;6136795;23;20065;-96
2021/08/18 11:57:24;;;;;;;5.05;3.08;;;20.80;97.70;;;;;;6142185;23;20018;-96
2021/08/18 12:00:14;;;;;;;4.43;2.90;;;21.10;95.70;;;;;;6112490;23;20346;-95
2021/08/18 12:03:02;;;;;;;4.13;2.67;;;21.20;95.00;;;;;;6135863;23;20065;-96
2021/08/18 12:05:56;;;;;;;5.45;3.00;;;21.20;94.60;;;;;;6136855;23;20018;-96
2021/08/18 12:08:34;;;;;;;4.38;2.53;;;21.10;94.20;;;;;;6135383;23;20034;-96
2021/08/18 12:11:02;;;;;;;5.38;2.92;;;20.90;93.90;;;;;;6139995;23;20017;-96
2021/08/18 12:13:47;;;;;;;5.57;3.55;;;20.80;94.30;;;;;;6111009;23;20017;-96
2021/08/18 12:16:30;;;;;;;6.03;2.80;;;20.60;94.50;;;;;;6111798;23;20021;-96
2021/08/18 12:19:20;;;;;;;6.15;3.30;;;20.40;95.20;;;;;;6140144;23;20045;-96
2021/08/18 12:22:05;;;;;;;6.38;3.35;;;20.30;95.80;;;;;;6113327;23;20014;-96
2021/08/18 12:24:34;;;;;;;4.95;3.15;;;20.30;95.50;;;;;;6133467;23;20014;-96
2021/08/18 12:27:09;;;;;;;6.05;3.55;;;20.40;95.90;;;;;;6110849;23;20022;-96
2021/08/18 12:29:41;;;;;;;6.13;3.20;;;20.80;95.10;;;;;;6110123;23;20022;-94
2021/08/18 12:32:10;;;;;;;4.50;2.90;;;20.90;94.80;;;;;;6116755;23;20026;-96
2021/08/18 12:34:47;;;;;;;6.32;3.10;;;20.90;94.50;;;;;;6084542;23;20018;-96
2021/08/18 12:37:38;;;;;;;4.75;3.10;;;20.80;94.40;;;;;;6085164;23;20018;-96
2021/08/18 12:40:45;;;;;;;4.93;3.47;;;20.80;94.60;;;;;;6109886;23;20018;-96
2021/08/18 12:43:19;;;;;;;6.20;3.17;;;20.70;94.60;;;;;;6135073;23;20024;-96
2021/08/18 12:45:51;;;;;;;4.88;3.22;;;20.80;94.40;;;;;;6110840;23;20545;-96
2021/08/18 12:48:58;;;;;;;4.47;3.17;;;20.70;93.90;;;;;;6135395;23;20026;-96
2021/08/18 12:51:24;;;;;;;4.60;3.58;;;20.70;94.30;;;;;;6110496;23;20025;-96
2021/08/18 12:53:50;;;;;;;8.98;3.67;;;20.60;94.00;;;;;;6134086;23;20028;-96
2021/08/18 12:56:26;;;;;;;4.97;3.10;;;20.50;94.10;;;;;;6109803;23;20021;-96
2021/08/18 12:58:52;;;;;;;5.75;3.67;;;20.50;94.60;;;;;;6107742;23;20030;-96
2021/08/18 13:01:18;;;;;;;4.95;3.40;;;20.60;94.50;;;;;;6085833;23;20029;-96